KTNU

Details ICAO KTNU
Name Newton Muni
Region United States
Timezone America/Chicago (UTC-6.0)
Plans Departing 0
Arriving 2
Stats Elevation 953 ft / 290 m (AMSL)
Location 41.674433° -93.021727°
Runways 1
Magnetic Variation 0.332° E
Sunrise 2017-12-17 13:34:57 UTC / 2017-12-17 07:34:57 Local
Sunset 2017-12-17 22:44:27 UTC / 2017-12-17 16:44:27 Local
Advertisement - Login to hide

Runways

ID Width Length Bearing (true) Bearing (mag) Surface Threshold Offset Overrun Length
14 98 ft / 30 m 5,598 ft / 1,706 m 141.32° 140.99° Asphalt 0 ft / 0 m 0 ft / 0 m
32 98 ft / 30 m 5,598 ft / 1,706 m 321.33° 321.00° Asphalt 0 ft / 0 m 0 ft / 0 m

Approach Navaids

Runway Type Ident Frequency Range Bearing (true) Bearing (mag) Slope Elevation
32 Localiser IMGX 109.70 MHz 18 nm / 33 km 321.33° 321.00° - 953 ft / 290 m (AMSL)
32 Glidescope IMGX 109.70 MHz 10 nm / 19 km 321.33° 321.00° 3.00° 953 ft / 290 m (AMSL)

Map

Weather


0- 5 10 15 20 25 30 35+ Temperature / ° C

Clouds and Precipitation
Forecast for 2017-12-17 12:00 UTC. Updated an hour ago

Ground ~20,000 ft ~40,000 ft Winds

METAR

KTNU 171155Z AUTO 05008KT 10SM CLR M02/M04 A2996 RMK AO2 PWINO

TAF

Not found

Frequencies

Recorded 132.27 MHz AWOS 3
Clearance 126.30 MHz CLNC DEL
Unicom 122.80 MHz CTAF/UNICOM
Approach 123.90 MHz DES MOINES APP/DEP
Warning: Do not use this data for real-world aviation or navigation. No guarantee of current accuracy is given.